Time;durP1;ratioP1;P1;durP2;ratioP2;P2;SDS_P1;SDS_P2;PMS_P1;PMS_P2;Temp;Humidity;BMP_temperature;BMP_pressure;BME280_temperature;BME280_humidity;BME280_pressure;Samples;Min_cycle;Max_cycle;Signal;HPM_P1;HPM_P2
2021/04/03 00:02:20;;;;;;;9.80;5.68;;;;;;;;;;4978554;28;20022;-77
2021/04/03 00:04:46;;;;;;;9.13;5.57;;;;;;;;;;4995860;28;20471;-80
2021/04/03 00:07:12;;;;;;;10.02;6.70;;;;;;;;;;4977844;28;20034;-79
2021/04/03 00:09:39;;;;;;;10.07;6.82;;;;;;;;;;4971258;28;20029;-79
2021/04/03 00:12:05;;;;;;;8.95;5.90;;;;;;;;;;4974614;28;20031;-80
2021/04/03 00:14:31;;;;;;;8.88;5.43;;;;;;;;;;4975838;28;20023;-79
2021/04/03 00:16:58;;;;;;;9.50;5.75;;;;;;;;;;4974554;28;20033;-79
2021/04/03 00:19:24;;;;;;;8.13;5.97;;;;;;;;;;4975833;28;20070;-78
2021/04/03 00:21:50;;;;;;;9.32;6.20;;;;;;;;;;4975860;28;20384;-79
2021/04/03 00:24:16;;;;;;;8.27;5.28;;;;;;;;;;4974233;28;20025;-78
2021/04/03 00:26:42;;;;;;;11.32;6.10;;;;;;;;;;4975208;28;20500;-79
2021/04/03 00:29:08;;;;;;;10.75;6.03;;;;;;;;;;4975550;28;20065;-81
2021/04/03 00:31:34;;;;;;;9.27;6.05;;;;;;;;;;4975434;28;20026;-79
2021/04/03 00:34:00;;;;;;;9.02;6.25;;;;;;;;;;4975538;28;20038;-80
2021/04/03 00:36:26;;;;;;;9.65;6.80;;;;;;;;;;4975676;28;20029;-79
2021/04/03 00:38:52;;;;;;;9.70;6.55;;;;;;;;;;4974724;28;20388;-78
2021/04/03 00:41:18;;;;;;;10.40;6.20;;;;;;;;;;4974595;28;20018;-79
2021/04/03 00:43:44;;;;;;;12.70;6.53;;;;;;;;;;4975975;28;20115;-78
2021/04/03 00:46:10;;;;;;;12.20;6.60;;;;;;;;;;4974537;28;20030;-80
2021/04/03 00:48:36;;;;;;;10.93;7.03;;;;;;;;;;4974247;28;20391;-78
2021/04/03 00:51:03;;;;;;;10.30;5.70;;;;;;;;;;4975696;28;20106;-78
2021/04/03 00:53:30;;;;;;;11.40;6.68;;;;;;;;;;4974491;28;20077;-78
2021/04/03 00:55:56;;;;;;;10.02;6.65;;;;;;;;;;4975722;28;20384;-78
2021/04/03 00:58:23;;;;;;;11.25;7.00;;;;;;;;;;4975705;28;20019;-78
2021/04/03 01:00:49;;;;;;;10.18;6.75;;;;;;;;;;4975520;28;20046;-77
2021/04/03 01:03:16;;;;;;;10.40;6.07;;;;;;;;;;4975393;28;20069;-77
2021/04/03 01:05:42;;;;;;;9.10;6.60;;;;;;;;;;4975569;28;20027;-78
2021/04/03 01:08:08;;;;;;;9.30;6.55;;;;;;;;;;4975584;28;20372;-77
2021/04/03 01:10:35;;;;;;;9.50;6.82;;;;;;;;;;4989198;28;20022;-77
2021/04/03 01:13:20;;;;;;;9.52;6.50;;;;;;;;;;4994715;28;20031;-78
2021/04/03 01:15:49;;;;;;;12.80;7.57;;;;;;;;;;4992327;28;20053;-78
2021/04/03 01:18:33;;;;;;;9.38;6.70;;;;;;;;;;4975582;28;20037;-79
2021/04/03 01:21:00;;;;;;;10.38;7.40;;;;;;;;;;4976035;28;20031;-78
2021/04/03 01:23:34;;;;;;;10.77;7.05;;;;;;;;;;4994661;28;20540;-78
2021/04/03 01:26:01;;;;;;;11.20;6.70;;;;;;;;;;4977029;28;20033;-78
2021/04/03 01:28:27;;;;;;;14.05;6.68;;;;;;;;;;4976794;28;20041;-79
2021/04/03 01:30:53;;;;;;;12.48;6.80;;;;;;;;;;4994496;28;20030;-78
2021/04/03 01:33:21;;;;;;;10.50;7.18;;;;;;;;;;4976914;28;20022;-78
2021/04/03 01:35:49;;;;;;;10.63;7.05;;;;;;;;;;4994352;28;20157;-78
2021/04/03 01:38:22;;;;;;;11.35;7.22;;;;;;;;;;4976890;28;20022;-78
2021/04/03 01:40:50;;;;;;;11.23;7.10;;;;;;;;;;4976767;28;20185;-78
2021/04/03 01:43:19;;;;;;;10.85;7.55;;;;;;;;;;4976641;28;20022;-78
2021/04/03 01:45:46;;;;;;;11.50;7.15;;;;;;;;;;4994134;28;20030;-78
2021/04/03 01:48:16;;;;;;;11.00;7.72;;;;;;;;;;4993983;28;20045;-78
2021/04/03 01:50:43;;;;;;;11.30;7.50;;;;;;;;;;4994050;28;20026;-78
2021/04/03 01:53:10;;;;;;;12.27;7.05;;;;;;;;;;4993974;28;20022;-78
2021/04/03 01:55:37;;;;;;;11.88;7.28;;;;;;;;;;4976407;28;20067;-78
2021/04/03 01:58:04;;;;;;;12.60;7.15;;;;;;;;;;4993896;28;20030;-78
2021/04/03 02:00:30;;;;;;;9.18;6.93;;;;;;;;;;4976392;28;20019;-78
2021/04/03 02:02:57;;;;;;;11.45;7.68;;;;;;;;;;4976287;28;20030;-78
2021/04/03 02:05:23;;;;;;;11.00;7.30;;;;;;;;;;4976240;28;20038;-78
2021/04/03 02:07:50;;;;;;;10.85;7.28;;;;;;;;;;4993629;28;20165;-78
2021/04/03 02:10:18;;;;;;;11.63;8.23;;;;;;;;;;4975842;28;20076;-78
2021/04/03 02:12:45;;;;;;;10.05;7.30;;;;;;;;;;4993613;28;20463;-78
2021/04/03 02:15:12;;;;;;;11.55;7.60;;;;;;;;;;4993478;28;20694;-78
2021/04/03 02:17:39;;;;;;;9.90;7.13;;;;;;;;;;4975213;28;20049;-78
2021/04/03 02:20:09;;;;;;;11.68;7.78;;;;;;;;;;4975856;28;20038;-79
2021/04/03 02:22:36;;;;;;;10.95;7.10;;;;;;;;;;4993051;28;20018;-78
2021/04/03 02:25:12;;;;;;;10.93;7.70;;;;;;;;;;4976164;28;20396;-78
2021/04/03 02:27:38;;;;;;;11.45;7.82;;;;;;;;;;4975850;28;20042;-78
2021/04/03 02:30:12;;;;;;;11.93;7.53;;;;;;;;;;4993163;28;20031;-78
2021/04/03 02:32:43;;;;;;;13.35;7.72;;;;;;;;;;4993205;28;20102;-78
2021/04/03 02:35:09;;;;;;;11.68;7.63;;;;;;;;;;4993171;28;20606;-78
2021/04/03 02:37:35;;;;;;;10.98;7.70;;;;;;;;;;4993156;28;20069;-78
2021/04/03 02:40:03;;;;;;;11.07;7.60;;;;;;;;;;4993011;28;20046;-78
2021/04/03 02:42:29;;;;;;;14.05;8.77;;;;;;;;;;4975606;28;20026;-78
2021/04/03 02:44:58;;;;;;;11.27;7.82;;;;;;;;;;4993025;28;20029;-78
2021/04/03 02:47:53;;;;;;;10.80;7.95;;;;;;;;;;4992914;28;20034;-78
2021/04/03 02:50:24;;;;;;;13.88;8.93;;;;;;;;;;4976354;28;20035;-78
2021/04/03 02:52:52;;;;;;;12.95;8.15;;;;;;;;;;4975509;28;20033;-78
2021/04/03 02:55:19;;;;;;;12.57;8.48;;;;;;;;;;4992785;28;20027;-78
2021/04/03 02:57:46;;;;;;;14.77;9.48;;;;;;;;;;4992808;28;20023;-78
2021/04/03 03:00:12;;;;;;;14.27;9.40;;;;;;;;;;4975442;28;20052;-78
2021/04/03 03:02:39;;;;;;;13.40;8.88;;;;;;;;;;4992717;28;20034;-78
2021/04/03 03:05:06;;;;;;;15.35;8.95;;;;;;;;;;4975166;28;20081;-78
2021/04/03 03:07:33;;;;;;;11.52;7.85;;;;;;;;;;4992507;28;20038;-79
2021/04/03 03:10:00;;;;;;;12.63;8.88;;;;;;;;;;4983271;28;20030;-78
2021/04/03 03:12:28;;;;;;;11.40;7.88;;;;;;;;;;4972070;28;20023;-79
2021/04/03 03:14:54;;;;;;;12.40;8.00;;;;;;;;;;4972144;28;20019;-78
2021/04/03 03:17:21;;;;;;;9.98;7.45;;;;;;;;;;4973264;28;20158;-78
2021/04/03 03:19:48;;;;;;;10.65;8.10;;;;;;;;;;4973081;28;20520;-79
2021/04/03 03:22:15;;;;;;;11.32;7.78;;;;;;;;;;4972273;28;20384;-78
2021/04/03 03:24:42;;;;;;;11.27;7.57;;;;;;;;;;4971688;28;20021;-78
2021/04/03 03:27:09;;;;;;;12.50;8.27;;;;;;;;;;4972986;28;20035;-78
2021/04/03 03:29:35;;;;;;;10.60;7.93;;;;;;;;;;4973208;28;20051;-78
2021/04/03 03:32:02;;;;;;;10.82;8.10;;;;;;;;;;4971933;28;20034;-79
2021/04/03 03:34:28;;;;;;;11.48;7.97;;;;;;;;;;4972248;28;20029;-79
2021/04/03 03:36:56;;;;;;;10.65;7.90;;;;;;;;;;4977107;28;20078;-78
2021/04/03 03:39:22;;;;;;;10.13;7.40;;;;;;;;;;4977080;28;20027;-79
2021/04/03 03:41:48;;;;;;;10.98;8.02;;;;;;;;;;4977186;28;20023;-79
2021/04/03 03:44:15;;;;;;;10.93;7.93;;;;;;;;;;4976999;28;20042;-79
2021/04/03 03:46:41;;;;;;;10.77;7.65;;;;;;;;;;4975517;28;20038;-79
2021/04/03 03:49:07;;;;;;;10.18;7.82;;;;;;;;;;4975620;28;20038;-79
2021/04/03 03:51:33;;;;;;;10.82;7.70;;;;;;;;;;4975652;28;20049;-79
2021/04/03 03:53:59;;;;;;;11.88;8.30;;;;;;;;;;4975514;28;20111;-79
2021/04/03 03:56:26;;;;;;;11.15;7.90;;;;;;;;;;4975645;28;20388;-78
2021/04/03 03:58:52;;;;;;;9.82;7.68;;;;;;;;;;4976719;28;20054;-78
2021/04/03 04:01:18;;;;;;;13.27;8.57;;;;;;;;;;4976534;28;20106;-79
2021/04/03 04:03:44;;;;;;;11.88;8.20;;;;;;;;;;4975482;28;20027;-79
2021/04/03 04:06:10;;;;;;;11.15;7.95;;;;;;;;;;4976716;28;20023;-79
2021/04/03 04:08:36;;;;;;;12.25;7.55;;;;;;;;;;4975034;28;20631;-79
2021/04/03 04:11:03;;;;;;;11.43;7.55;;;;;;;;;;4976048;28;20023;-79
2021/04/03 04:13:29;;;;;;;10.73;7.57;;;;;;;;;;4976266;28;20027;-79
2021/04/03 04:15:55;;;;;;;13.15;8.20;;;;;;;;;;4976498;28;20029;-79
2021/04/03 04:18:22;;;;;;;12.98;7.95;;;;;;;;;;4976037;28;20038;-79
2021/04/03 04:20:48;;;;;;;11.85;7.90;;;;;;;;;;4975022;28;20029;-79
2021/04/03 04:23:14;;;;;;;10.65;8.07;;;;;;;;;;4957714;28;20027;-79
2021/04/03 04:25:40;;;;;;;10.88;7.70;;;;;;;;;;4975039;28;20058;-79
2021/04/03 04:28:06;;;;;;;14.40;7.95;;;;;;;;;;4974873;28;20043;-79
2021/04/03 04:30:32;;;;;;;11.88;8.30;;;;;;;;;;4957674;28;20023;-79
2021/04/03 04:32:58;;;;;;;10.82;7.93;;;;;;;;;;4974946;28;20511;-79
2021/04/03 04:35:24;;;;;;;11.18;8.00;;;;;;;;;;4957793;28;20367;-79
2021/04/03 04:37:50;;;;;;;13.57;8.35;;;;;;;;;;4957455;28;20031;-78
2021/04/03 04:40:16;;;;;;;12.00;7.75;;;;;;;;;;4974768;28;20099;-79
2021/04/03 04:42:43;;;;;;;11.88;8.13;;;;;;;;;;4957386;28;20022;-78
2021/04/03 04:45:10;;;;;;;10.68;7.45;;;;;;;;;;4957107;28;20110;-79
2021/04/03 04:47:36;;;;;;;11.80;7.68;;;;;;;;;;4974301;28;20047;-79
2021/04/03 04:50:03;;;;;;;15.45;8.70;;;;;;;;;;4974762;28;20030;-79
2021/04/03 04:52:30;;;;;;;13.20;8.40;;;;;;;;;;4974644;28;20502;-79
2021/04/03 04:54:56;;;;;;;13.77;8.60;;;;;;;;;;4957108;28;20023;-79
2021/04/03 04:57:22;;;;;;;11.75;8.07;;;;;;;;;;4974392;28;20023;-79
2021/04/03 04:59:48;;;;;;;12.13;8.25;;;;;;;;;;4974581;28;20503;-79
2021/04/03 05:02:15;;;;;;;13.13;8.45;;;;;;;;;;4974403;28;20022;-79
2021/04/03 05:04:41;;;;;;;12.00;8.60;;;;;;;;;;4974437;28;20070;-79
2021/04/03 05:07:07;;;;;;;10.63;8.40;;;;;;;;;;4956931;28;20033;-79
2021/04/03 05:09:33;;;;;;;13.88;7.93;;;;;;;;;;4962185;28;20034;-79
2021/04/03 05:12:01;;;;;;;10.70;8.05;;;;;;;;;;4993687;28;20081;-79
2021/04/03 05:14:27;;;;;;;12.35;8.02;;;;;;;;;;4976116;28;20077;-79
2021/04/03 05:16:53;;;;;;;10.98;8.13;;;;;;;;;;4993644;28;20031;-79
2021/04/03 05:19:19;;;;;;;10.90;8.23;;;;;;;;;;4948533;28;816002;-79
2021/04/03 05:21:45;;;;;;;11.95;8.07;;;;;;;;;;4977199;28;20217;-79
2021/04/03 05:24:11;;;;;;;10.88;7.43;;;;;;;;;;4994564;28;20028;-79
2021/04/03 05:26:37;;;;;;;10.77;8.10;;;;;;;;;;4994461;28;20099;-79
2021/04/03 05:29:04;;;;;;;10.05;8.38;;;;;;;;;;4994469;28;20379;-79
2021/04/03 05:31:30;;;;;;;10.77;7.85;;;;;;;;;;4994486;28;20030;-79
2021/04/03 05:33:56;;;;;;;11.65;8.43;;;;;;;;;;4994195;28;20364;-79
2021/04/03 05:36:22;;;;;;;10.25;7.70;;;;;;;;;;4976885;28;20602;-78
2021/04/03 05:38:48;;;;;;;12.40;7.97;;;;;;;;;;4976974;28;20022;-79
2021/04/03 05:41:14;;;;;;;12.93;8.85;;;;;;;;;;4976744;28;20554;-79
2021/04/03 05:43:40;;;;;;;13.30;8.73;;;;;;;;;;4976731;28;20041;-79
2021/04/03 05:46:06;;;;;;;10.13;7.70;;;;;;;;;;4976553;28;20034;-79
2021/04/03 05:48:33;;;;;;;11.10;8.18;;;;;;;;;;4976526;28;20491;-79
2021/04/03 05:51:00;;;;;;;11.40;8.18;;;;;;;;;;4976628;28;20500;-79
2021/04/03 05:53:27;;;;;;;11.73;8.40;;;;;;;;;;4994034;28;20060;-79
2021/04/03 05:55:56;;;;;;;10.80;7.63;;;;;;;;;;4994076;28;20500;-79
2021/04/03 05:58:22;;;;;;;13.73;7.70;;;;;;;;;;4993122;28;20030;-79
2021/04/03 06:00:51;;;;;;;10.88;7.53;;;;;;;;;;4993613;28;20101;-79
2021/04/03 06:03:17;;;;;;;12.25;8.05;;;;;;;;;;4993491;28;20502;-79
2021/04/03 06:05:44;;;;;;;13.43;7.93;;;;;;;;;;4993915;28;20108;-79
2021/04/03 06:08:11;;;;;;;11.05;7.15;;;;;;;;;;4976082;28;20435;-79
2021/04/03 06:10:37;;;;;;;10.23;7.40;;;;;;;;;;4976302;28;20023;-79
2021/04/03 06:13:03;;;;;;;14.43;7.80;;;;;;;;;;4976516;28;20014;-79
2021/04/03 06:15:29;;;;;;;11.65;8.00;;;;;;;;;;4975993;28;20033;-79
2021/04/03 06:17:59;;;;;;;12.40;7.78;;;;;;;;;;4992896;28;20050;-79
2021/04/03 06:20:36;;;;;;;10.05;6.93;;;;;;;;;;4976027;28;20038;-79
2021/04/03 06:23:03;;;;;;;10.32;7.00;;;;;;;;;;4976047;28;20092;-76
2021/04/03 06:25:29;;;;;;;12.90;7.35;;;;;;;;;;4993086;28;20014;-79
2021/04/03 06:28:08;;;;;;;11.60;7.57;;;;;;;;;;4975652;28;20042;-79
2021/04/03 06:30:35;;;;;;;9.48;6.97;;;;;;;;;;4975964;28;20022;-79
2021/04/03 06:33:14;;;;;;;11.80;6.70;;;;;;;;;;4993398;28;20027;-79
2021/04/03 06:35:41;;;;;;;10.23;7.22;;;;;;;;;;4975518;28;20053;-79
2021/04/03 06:38:20;;;;;;;10.70;7.50;;;;;;;;;;4993371;28;20076;-79
2021/04/03 06:40:46;;;;;;;10.07;6.82;;;;;;;;;;4993241;28;20018;-79
2021/04/03 06:43:19;;;;;;;11.02;7.45;;;;;;;;;;4993060;28;20109;-79
2021/04/03 06:45:46;;;;;;;11.93;6.90;;;;;;;;;;4975493;28;20022;-79
2021/04/03 06:48:14;;;;;;;9.93;6.53;;;;;;;;;;4993078;28;20081;-79
2021/04/03 06:50:44;;;;;;;15.00;6.78;;;;;;;;;;4993031;28;20027;-80
2021/04/03 06:53:11;;;;;;;10.95;6.90;;;;;;;;;;4975574;28;20060;-79
2021/04/03 06:55:38;;;;;;;10.73;7.03;;;;;;;;;;4992914;28;20097;-80
2021/04/03 06:58:05;;;;;;;10.45;6.45;;;;;;;;;;4975402;28;20025;-77
2021/04/03 07:00:32;;;;;;;11.93;7.40;;;;;;;;;;4992411;28;20648;-77
2021/04/03 07:03:02;;;;;;;8.20;5.28;;;;;;;;;;4974376;28;20029;-80
2021/04/03 07:05:32;;;;;;;7.22;5.13;;;;;;;;;;4974597;28;20054;-78
2021/04/03 07:08:00;;;;;;;7.82;5.30;;;;;;;;;;4975177;28;20034;-78
2021/04/03 07:10:29;;;;;;;8.30;5.38;;;;;;;;;;4975001;28;20109;-78
2021/04/03 07:12:56;;;;;;;8.05;5.40;;;;;;;;;;4975290;28;20168;-78
2021/04/03 07:15:22;;;;;;;8.02;5.10;;;;;;;;;;4990359;28;20033;-78
2021/04/03 07:17:49;;;;;;;6.25;4.57;;;;;;;;;;4991126;28;20122;-78
2021/04/03 07:20:16;;;;;;;10.77;6.00;;;;;;;;;;4990552;28;20114;-77
2021/04/03 07:22:50;;;;;;;7.55;5.18;;;;;;;;;;4974667;28;20026;-79
2021/04/03 07:25:17;;;;;;;8.73;5.35;;;;;;;;;;4991890;28;20395;-79
2021/04/03 07:27:45;;;;;;;9.52;5.50;;;;;;;;;;4974742;28;20116;-79
2021/04/03 07:30:12;;;;;;;10.55;5.60;;;;;;;;;;4975041;28;20026;-79
2021/04/03 07:32:39;;;;;;;9.10;5.07;;;;;;;;;;4975278;28;20376;-79
2021/04/03 07:35:25;;;;;;;8.02;5.10;;;;;;;;;;4975030;28;20379;-78
2021/04/03 07:37:52;;;;;;;7.63;5.28;;;;;;;;;;4992254;28;20197;-79
2021/04/03 07:40:39;;;;;;;7.55;4.72;;;;;;;;;;4992583;28;20471;-79
2021/04/03 07:43:25;;;;;;;8.30;5.47;;;;;;;;;;4974695;28;20041;-79
2021/04/03 07:45:51;;;;;;;8.07;5.22;;;;;;;;;;4974562;28;20018;-79
2021/04/03 07:48:35;;;;;;;7.45;4.93;;;;;;;;;;4992175;28;20034;-80
2021/04/03 07:51:01;;;;;;;7.88;5.32;;;;;;;;;;4992288;28;20026;-78
2021/04/03 07:53:48;;;;;;;8.73;5.53;;;;;;;;;;4992250;28;20023;-78
2021/04/03 07:56:15;;;;;;;7.80;5.10;;;;;;;;;;4992348;28;20049;-79
2021/04/03 07:58:48;;;;;;;7.82;4.97;;;;;;;;;;4992394;28;20023;-79
2021/04/03 08:01:15;;;;;;;8.20;4.95;;;;;;;;;;4974594;28;20030;-77
2021/04/03 08:03:41;;;;;;;8.93;5.68;;;;;;;;;;4974506;28;20022;-78
2021/04/03 08:06:08;;;;;;;7.97;5.38;;;;;;;;;;4991663;28;20060;-77
2021/04/03 08:08:35;;;;;;;11.38;5.55;;;;;;;;;;4974549;28;20390;-78
2021/04/03 08:11:22;;;;;;;7.22;5.00;;;;;;;;;;4992037;28;20022;-77
2021/04/03 08:13:49;;;;;;;10.93;4.88;;;;;;;;;;4992263;28;20050;-78
2021/04/03 08:16:16;;;;;;;7.72;4.65;;;;;;;;;;4992136;28;20156;-80
2021/04/03 08:18:43;;;;;;;10.32;4.78;;;;;;;;;;4974554;28;20074;-77
2021/04/03 08:21:10;;;;;;;11.80;5.38;;;;;;;;;;4975850;28;20023;-79
2021/04/03 08:23:49;;;;;;;8.43;4.78;;;;;;;;;;4978066;28;20041;-77
2021/04/03 08:26:16;;;;;;;6.43;4.40;;;;;;;;;;4977909;28;20022;-78
2021/04/03 08:28:42;;;;;;;9.70;4.95;;;;;;;;;;4995396;28;20035;-79
2021/04/03 08:31:18;;;;;;;8.07;5.00;;;;;;;;;;4995671;28;20025;-78
2021/04/03 08:33:45;;;;;;;21.20;5.45;;;;;;;;;;4995426;28;20117;-79
2021/04/03 08:36:12;;;;;;;8.77;4.78;;;;;;;;;;4996015;28;20023;-78
2021/04/03 08:38:40;;;;;;;14.90;5.05;;;;;;;;;;4995830;28;20427;-79
2021/04/03 08:41:06;;;;;;;9.35;4.78;;;;;;;;;;4995656;28;20459;-75
2021/04/03 08:43:33;;;;;;;7.20;4.70;;;;;;;;;;4995349;28;20034;-78
2021/04/03 08:46:08;;;;;;;32.90;6.32;;;;;;;;;;4995437;28;20106;-79
2021/04/03 08:48:35;;;;;;;10.70;4.30;;;;;;;;;;4977527;28;20030;-80
2021/04/03 08:51:02;;;;;;;6.80;4.40;;;;;;;;;;4977743;28;20085;-80
2021/04/03 08:53:36;;;;;;;9.50;5.20;;;;;;;;;;4977127;28;20061;-81
2021/04/03 08:56:02;;;;;;;7.57;4.47;;;;;;;;;;4977079;28;20026;-80
2021/04/03 08:58:28;;;;;;;16.30;6.43;;;;;;;;;;4977203;28;20093;-77
2021/04/03 09:00:54;;;;;;;10.50;4.55;;;;;;;;;;4977535;28;20032;-81
2021/04/03 09:03:20;;;;;;;16.02;5.43;;;;;;;;;;4976977;28;20073;-78
2021/04/03 09:05:50;;;;;;;21.63;4.95;;;;;;;;;;4977431;28;20034;-79
2021/04/03 09:08:23;;;;;;;8.55;4.28;;;;;;;;;;4977207;28;20034;-79
2021/04/03 09:10:56;;;;;;;9.95;3.85;;;;;;;;;;4978836;28;20025;-82
2021/04/03 09:13:22;;;;;;;9.32;4.43;;;;;;;;;;4974033;28;20110;-82
2021/04/03 09:15:49;;;;;;;10.30;4.30;;;;;;;;;;4975355;28;20034;-84
2021/04/03 09:18:15;;;;;;;8.35;4.13;;;;;;;;;;4975274;28;20093;-86
2021/04/03 09:20:48;;;;;;;9.30;4.50;;;;;;;;;;4976232;28;20045;-84
2021/04/03 09:23:14;;;;;;;12.07;4.50;;;;;;;;;;4973845;28;20061;-77
2021/04/03 09:25:40;;;;;;;13.73;4.53;;;;;;;;;;4975342;28;20027;-86
2021/04/03 09:28:10;;;;;;;9.55;4.38;;;;;;;;;;4994864;28;20084;-78
2021/04/03 09:30:42;;;;;;;8.23;3.60;;;;;;;;;;5010927;28;20048;-84
2021/04/03 09:33:16;;;;;;;7.68;3.83;;;;;;;;;;5009524;28;20402;-85
2021/04/03 09:35:42;;;;;;;8.32;4.13;;;;;;;;;;4988094;28;20067;-84
2021/04/03 09:38:08;;;;;;;13.98;3.15;;;;;;;;;;5008696;28;20030;-77
2021/04/03 09:40:39;;;;;;;17.83;3.50;;;;;;;;;;4990955;28;20026;-81
2021/04/03 09:43:06;;;;;;;7.53;3.50;;;;;;;;;;4999517;28;20037;-75
2021/04/03 09:45:32;;;;;;;14.23;6.30;;;;;;;;;;4984315;28;20654;-75
2021/04/03 09:47:58;;;;;;;20.77;6.55;;;;;;;;;;5004114;28;20419;-81
2021/04/03 09:50:25;;;;;;;24.95;8.40;;;;;;;;;;5001642;28;20021;-81
2021/04/03 09:52:52;;;;;;;23.00;8.63;;;;;;;;;;4997252;28;20026;-79
2021/04/03 09:55:19;;;;;;;21.67;7.43;;;;;;;;;;4995758;28;20510;-78
2021/04/03 09:57:45;;;;;;;24.90;7.55;;;;;;;;;;5013578;28;20026;-80
2021/04/03 10:00:11;;;;;;;15.27;7.05;;;;;;;;;;4984518;28;20122;-76
2021/04/03 10:02:37;;;;;;;23.05;6.80;;;;;;;;;;4976134;28;20049;-77
2021/04/03 10:05:04;;;;;;;16.38;6.95;;;;;;;;;;4993361;28;20073;-76
2021/04/03 10:07:30;;;;;;;13.82;6.28;;;;;;;;;;4975606;28;20484;-77
2021/04/03 10:09:56;;;;;;;17.35;6.15;;;;;;;;;;4975664;28;20434;-77
2021/04/03 10:12:22;;;;;;;12.25;6.10;;;;;;;;;;4992794;28;20031;-78
2021/04/03 10:14:49;;;;;;;14.73;5.25;;;;;;;;;;4995955;28;20029;-76
2021/04/03 10:17:15;;;;;;;22.73;6.07;;;;;;;;;;5001959;28;20017;-77
2021/04/03 10:19:42;;;;;;;20.98;6.10;;;;;;;;;;4998657;28;20062;-78
2021/04/03 10:22:08;;;;;;;26.02;6.05;;;;;;;;;;4996015;28;20045;-79
2021/04/03 10:24:34;;;;;;;22.00;5.93;;;;;;;;;;4995782;28;20030;-78
2021/04/03 10:27:00;;;;;;;17.77;4.68;;;;;;;;;;5000650;28;20026;-80
2021/04/03 10:29:26;;;;;;;21.02;5.40;;;;;;;;;;4994449;28;20026;-79
2021/04/03 10:31:52;;;;;;;14.15;4.53;;;;;;;;;;5011193;28;20096;-79
2021/04/03 10:34:18;;;;;;;15.63;4.72;;;;;;;;;;4994446;28;20057;-79
2021/04/03 10:36:44;;;;;;;16.00;4.18;;;;;;;;;;5012200;28;20026;-80
2021/04/03 10:39:10;;;;;;;18.02;4.40;;;;;;;;;;4984704;28;20033;-80
2021/04/03 10:41:37;;;;;;;20.95;4.45;;;;;;;;;;4975079;28;20100;-79
2021/04/03 10:44:04;;;;;;;33.60;4.30;;;;;;;;;;4974788;28;20030;-80
2021/04/03 10:46:30;;;;;;;21.33;3.30;;;;;;;;;;4974250;28;20153;-79
2021/04/03 10:48:56;;;;;;;17.10;3.13;;;;;;;;;;4987520;28;20439;-80
2021/04/03 10:51:22;;;;;;;13.35;3.22;;;;;;;;;;4991000;28;20026;-80
2021/04/03 10:53:48;;;;;;;13.80;3.20;;;;;;;;;;4974157;28;20053;-80
2021/04/03 10:56:14;;;;;;;23.00;3.45;;;;;;;;;;4975040;28;20394;-80
2021/04/03 10:58:40;;;;;;;12.60;3.03;;;;;;;;;;4992547;28;20030;-80
2021/04/03 11:01:06;;;;;;;9.73;2.42;;;;;;;;;;4975194;28;20116;-80
2021/04/03 11:03:32;;;;;;;8.52;3.22;;;;;;;;;;4975183;28;20509;-80
2021/04/03 11:05:58;;;;;;;9.30;2.33;;;;;;;;;;4975248;28;20438;-79
2021/04/03 11:08:25;;;;;;;7.35;1.90;;;;;;;;;;4972121;28;20046;-81
2021/04/03 11:10:51;;;;;;;6.68;2.10;;;;;;;;;;4981079;28;20582;-81
2021/04/03 11:13:17;;;;;;;5.45;2.25;;;;;;;;;;4991844;28;20041;-80
2021/04/03 11:15:44;;;;;;;4.82;1.98;;;;;;;;;;4974509;28;20499;-80
2021/04/03 11:18:10;;;;;;;4.78;1.98;;;;;;;;;;4974403;28;20077;-80
2021/04/03 11:20:38;;;;;;;7.63;2.10;;;;;;;;;;4992255;28;20480;-80
2021/04/03 11:23:04;;;;;;;6.70;1.85;;;;;;;;;;4975264;28;20670;-79
2021/04/03 11:25:30;;;;;;;9.10;2.20;;;;;;;;;;4992177;28;20061;-80
2021/04/03 11:27:56;;;;;;;6.40;1.90;;;;;;;;;;4974666;28;20030;-80
2021/04/03 11:30:23;;;;;;;4.95;1.95;;;;;;;;;;4972587;28;20391;-80
2021/04/03 11:32:50;;;;;;;13.85;1.90;;;;;;;;;;4974560;28;20490;-81
2021/04/03 11:35:17;;;;;;;4.43;1.67;;;;;;;;;;4992049;28;20360;-80
2021/04/03 11:37:44;;;;;;;6.50;1.70;;;;;;;;;;4974583;28;20022;-80
2021/04/03 11:40:10;;;;;;;5.85;1.52;;;;;;;;;;4974971;28;20119;-80
2021/04/03 11:42:37;;;;;;;5.90;1.60;;;;;;;;;;4992253;28;20023;-79
2021/04/03 11:45:05;;;;;;;5.22;1.60;;;;;;;;;;4974819;28;20068;-80
2021/04/03 11:47:31;;;;;;;3.33;1.35;;;;;;;;;;4989537;28;20026;-79
2021/04/03 11:49:58;;;;;;;4.13;1.38;;;;;;;;;;4991668;28;20093;-79
2021/04/03 11:52:34;;;;;;;4.00;1.40;;;;;;;;;;4974452;28;20472;-79
2021/04/03 11:55:00;;;;;;;5.97;1.33;;;;;;;;;;4991637;28;20499;-79
2021/04/03 11:57:28;;;;;;;3.22;1.30;;;;;;;;;;4978076;28;20048;-80
2021/04/03 11:59:54;;;;;;;4.18;1.30;;;;;;;;;;4978299;28;20494;-80
2021/04/03 12:02:20;;;;;;;3.22;1.30;;;;;;;;;;4978286;28;20026;-79
2021/04/03 12:04:46;;;;;;;4.70;1.63;;;;;;;;;;4995881;28;20093;-80
2021/04/03 12:07:12;;;;;;;4.97;1.52;;;;;;;;;;4995605;28;20089;-79
2021/04/03 12:09:38;;;;;;;3.80;1.23;;;;;;;;;;4978327;28;20118;-79
2021/04/03 12:12:06;;;;;;;4.20;1.25;;;;;;;;;;4995771;28;20395;-79
2021/04/03 12:14:32;;;;;;;3.22;1.30;;;;;;;;;;4995646;28;20423;-79
2021/04/03 12:16:58;;;;;;;2.17;1.10;;;;;;;;;;4995865;28;20101;-79
2021/04/03 12:19:25;;;;;;;4.03;1.40;;;;;;;;;;4989796;28;20038;-79
2021/04/03 12:21:51;;;;;;;4.78;1.45;;;;;;;;;;4993879;28;20095;-79
2021/04/03 12:24:17;;;;;;;4.90;1.27;;;;;;;;;;4977541;28;20030;-78
2021/04/03 12:26:43;;;;;;;1.88;0.93;;;;;;;;;;4977709;28;20105;-79
2021/04/03 12:29:09;;;;;;;5.30;1.60;;;;;;;;;;4995373;28;20030;-77
2021/04/03 12:31:35;;;;;;;3.95;1.23;;;;;;;;;;4995199;28;20105;-78
2021/04/03 12:34:01;;;;;;;3.15;1.30;;;;;;;;;;4977718;28;20499;-78
2021/04/03 12:36:27;;;;;;;4.78;1.63;;;;;;;;;;4995105;28;20026;-78
2021/04/03 12:38:54;;;;;;;3.80;0.95;;;;;;;;;;4977451;28;20046;-78
2021/04/03 12:41:20;;;;;;;4.10;1.35;;;;;;;;;;4995039;28;20030;-78
2021/04/03 12:43:46;;;;;;;2.58;1.20;;;;;;;;;;4994875;28;20110;-77
2021/04/03 12:46:12;;;;;;;1.85;1.08;;;;;;;;;;4977306;28;20034;-78
2021/04/03 12:48:38;;;;;;;5.90;1.33;;;;;;;;;;4977146;28;20041;-78
2021/04/03 12:51:04;;;;;;;1.70;1.00;;;;;;;;;;4977651;28;20031;-78
2021/04/03 12:53:30;;;;;;;2.70;1.27;;;;;;;;;;4977540;28;20037;-77
2021/04/03 12:55:57;;;;;;;3.70;1.20;;;;;;;;;;4994797;28;20021;-78
2021/04/03 12:58:23;;;;;;;3.25;1.08;;;;;;;;;;4977385;28;20487;-78
2021/04/03 13:00:49;;;;;;;2.85;1.10;;;;;;;;;;4977198;28;20399;-77
2021/04/03 13:03:16;;;;;;;1.95;0.90;;;;;;;;;;4994628;28;20022;-78
2021/04/03 13:05:42;;;;;;;2.60;0.90;;;;;;;;;;4977177;28;20146;-77
2021/04/03 13:08:08;;;;;;;3.58;1.10;;;;;;;;;;4976783;28;20395;-78
2021/04/03 13:10:34;;;;;;;3.40;1.20;;;;;;;;;;4977084;28;20049;-77
2021/04/03 13:13:00;;;;;;;4.97;1.08;;;;;;;;;;4994499;28;20173;-77
2021/04/03 13:15:27;;;;;;;2.15;0.98;;;;;;;;;;4976857;28;20109;-77
2021/04/03 13:17:53;;;;;;;1.70;0.95;;;;;;;;;;4994086;28;20080;-78
2021/04/03 13:20:19;;;;;;;2.90;1.10;;;;;;;;;;4976811;28;20128;-77
2021/04/03 13:22:45;;;;;;;1.80;1.00;;;;;;;;;;4976870;28;20479;-76
2021/04/03 13:25:11;;;;;;;2.83;1.45;;;;;;;;;;4994218;28;20022;-77
2021/04/03 13:27:37;;;;;;;1.92;1.00;;;;;;;;;;4994116;28;20117;-78
2021/04/03 13:30:06;;;;;;;2.10;1.00;;;;;;;;;;4994377;28;20094;-77
2021/04/03 13:32:33;;;;;;;2.38;0.90;;;;;;;;;;4994245;28;20106;-77
2021/04/03 13:34:59;;;;;;;2.47;1.02;;;;;;;;;;4977005;28;20027;-77
2021/04/03 13:37:25;;;;;;;0.77;0.60;;;;;;;;;;4993902;28;20011;-77
2021/04/03 13:39:51;;;;;;;2.58;0.90;;;;;;;;;;4976410;28;20467;-78
2021/04/03 13:42:17;;;;;;;2.42;0.80;;;;;;;;;;4976296;28;20018;-77
2021/04/03 13:44:43;;;;;;;4.28;1.20;;;;;;;;;;4976461;28;20030;-77
2021/04/03 13:47:09;;;;;;;2.60;0.98;;;;;;;;;;4993724;28;20388;-77
2021/04/03 13:49:35;;;;;;;1.58;0.80;;;;;;;;;;4976350;28;20030;-77
2021/04/03 13:52:02;;;;;;;2.45;0.90;;;;;;;;;;4993864;28;20053;-77
2021/04/03 13:54:28;;;;;;;1.52;0.80;;;;;;;;;;4976247;28;20023;-77
2021/04/03 13:56:54;;;;;;;1.95;0.70;;;;;;;;;;4975949;28;20113;-77
2021/04/03 13:59:20;;;;;;;2.38;1.23;;;;;;;;;;4993684;28;20034;-77
2021/04/03 14:01:46;;;;;;;1.70;0.88;;;;;;;;;;4993686;28;20030;-77
2021/04/03 14:04:12;;;;;;;1.73;0.88;;;;;;;;;;4976139;28;20023;-77
2021/04/03 14:06:38;;;;;;;4.95;1.13;;;;;;;;;;4975950;28;20018;-77
2021/04/03 14:09:05;;;;;;;2.05;0.80;;;;;;;;;;4993418;28;20053;-76
2021/04/03 14:11:31;;;;;;;2.45;0.90;;;;;;;;;;4978598;28;20022;-79
2021/04/03 14:13:57;;;;;;;1.90;0.90;;;;;;;;;;4977607;28;20033;-77
2021/04/03 14:16:23;;;;;;;3.90;1.15;;;;;;;;;;4994223;28;20037;-77
2021/04/03 14:18:49;;;;;;;2.42;1.05;;;;;;;;;;4992477;28;20105;-77
2021/04/03 14:21:15;;;;;;;4.05;0.90;;;;;;;;;;4973420;28;20026;-77
2021/04/03 14:23:41;;;;;;;3.28;1.20;;;;;;;;;;4975659;28;20105;-77
2021/04/03 14:26:07;;;;;;;2.50;1.10;;;;;;;;;;4993197;28;20019;-77
2021/04/03 14:28:34;;;;;;;3.20;1.50;;;;;;;;;;4976099;28;20030;-77
2021/04/03 14:31:00;;;;;;;2.55;1.27;;;;;;;;;;4992941;28;20146;-77
2021/04/03 14:33:26;;;;;;;2.50;1.27;;;;;;;;;;4975543;28;20022;-76
2021/04/03 14:35:52;;;;;;;3.00;1.17;;;;;;;;;;4975620;28;20069;-77
2021/04/03 14:38:19;;;;;;;2.63;1.30;;;;;;;;;;4975730;28;20558;-77